createdAt,value
2018-06-25T00:00:42.258Z,101572.09
2018-06-25T00:03:12.850Z,101816.23
2018-06-25T00:05:43.084Z,101815.78
2018-06-25T00:08:13.787Z,101818.69
2018-06-25T00:10:46.641Z,101820.41
2018-06-25T00:13:17.107Z,101812.59
2018-06-25T00:15:52.223Z,101815.29
2018-06-25T00:18:32.582Z,101819.50
2018-06-25T00:21:05.146Z,101818.33
2018-06-25T00:23:39.553Z,101811.42
2018-06-25T00:26:12.876Z,101810.80
2018-06-25T00:28:51.401Z,101815.02
2018-06-25T00:32:07.659Z,101812.09
2018-06-25T00:34:43.243Z,101817.41
2018-06-25T00:37:14.686Z,101826.03
2018-06-25T00:39:45.031Z,101824.45
2018-06-25T00:42:15.325Z,101824.48
2018-06-25T00:44:46.016Z,101817.77
2018-06-25T00:47:17.583Z,101816.28
2018-06-25T00:50:03.246Z,101815.34
2018-06-25T00:52:37.583Z,101811.98
2018-06-25T00:55:08.581Z,101815.78
2018-06-25T00:57:39.642Z,101813.55
2018-06-25T01:03:06.056Z,101809.05
2018-06-25T01:05:38.021Z,101806.30
2018-06-25T01:08:08.522Z,101811.07
2018-06-25T01:10:46.384Z,101804.95
2018-06-25T01:13:16.794Z,101821.34
2018-06-25T01:18:33.977Z,101827.45
2018-06-25T01:21:05.130Z,101817.09
2018-06-25T01:23:35.533Z,101812.06
2018-06-25T01:26:05.801Z,101819.88
2018-06-25T01:28:36.392Z,101815.17
2018-06-25T01:31:07.174Z,101814.38
2018-06-25T01:33:37.431Z,101822.52
2018-06-25T01:36:08.951Z,101815.78
2018-06-25T01:38:39.480Z,101809.26
2018-06-25T01:41:10.458Z,101811.52
2018-06-25T01:43:42.773Z,101806.07
2018-06-25T01:46:14.347Z,101811.98
2018-06-25T01:48:45.399Z,101809.52
2018-06-25T01:51:16.364Z,101810.37
2018-06-25T01:53:57.452Z,101809.64
2018-06-25T01:56:28.624Z,101812.59
2018-06-25T01:59:00.190Z,101811.02
2018-06-25T02:01:30.940Z,101810.14
2018-06-25T02:04:01.625Z,101808.55
2018-06-25T02:06:32.189Z,101813.73
2018-06-25T02:09:02.549Z,101823.48
2018-06-25T02:11:33.434Z,101823.66
2018-06-25T02:14:03.747Z,101815.78
2018-06-25T02:16:34.336Z,101820.06
2018-06-25T02:19:05.545Z,101817.48
2018-06-25T02:21:35.863Z,101819.47
2018-06-25T02:24:06.348Z,101812.30
2018-06-25T02:26:37.784Z,101821.11
2018-06-25T02:29:08.456Z,101818.24
2018-06-25T02:31:39.040Z,101820.75
2018-06-25T02:34:09.969Z,101814.48
2018-06-25T02:36:40.345Z,101819.65
2018-06-25T02:39:11.896Z,101822.24
2018-06-25T02:41:43.521Z,101816.77
2018-06-25T02:44:16.110Z,101824.52
2018-06-25T02:46:48.281Z,101819.41
2018-06-25T02:49:20.814Z,101824.50
2018-06-25T02:51:53.636Z,101816.10
2018-06-25T02:54:23.901Z,101818.59
2018-06-25T02:56:55.519Z,101816.72
2018-06-25T02:59:26.374Z,101819.52
2018-06-25T03:02:00.163Z,101818.73
2018-06-25T03:04:32.748Z,101824.95
2018-06-25T03:07:04.983Z,101834.12
2018-06-25T03:09:35.312Z,101834.36
2018-06-25T03:12:05.846Z,101827.31
2018-06-25T03:14:36.304Z,101829.08
2018-06-25T03:17:07.096Z,101835.38
2018-06-25T03:19:37.761Z,101837.54
2018-06-25T03:22:08.094Z,101838.08
2018-06-25T03:24:38.626Z,101830.17
2018-06-25T03:27:09.527Z,101838.44
2018-06-25T03:29:40.661Z,101839.34
2018-06-25T03:32:11.816Z,101846.21
2018-06-25T03:34:42.521Z,101846.66
2018-06-25T03:37:14.919Z,101842.66
2018-06-25T03:39:45.370Z,101841.59
2018-06-25T03:42:15.936Z,101838.63
2018-06-25T03:44:46.668Z,101839.12
2018-06-25T03:47:17.581Z,101842.27
2018-06-25T03:49:48.162Z,101849.36
2018-06-25T03:52:19.450Z,101851.53
2018-06-25T03:54:59.314Z,101853.92
2018-06-25T03:57:30.175Z,101853.02
2018-06-25T04:00:00.934Z,101859.30
2018-06-25T04:02:35.168Z,101855.36
2018-06-25T04:05:06.610Z,101855.72
2018-06-25T04:07:43.958Z,101858.36
2018-06-25T04:10:16.741Z,101860.36
2018-06-25T04:12:47.704Z,101858.68
2018-06-25T04:15:18.337Z,101855.45
2018-06-25T04:17:49.871Z,101856.47
2018-06-25T04:20:21.027Z,101863.24
2018-06-25T04:22:54.672Z,101867.09
2018-06-25T04:25:27.750Z,101862.70
2018-06-25T04:27:58.380Z,101864.73
2018-06-25T04:30:29.870Z,101866.19
2018-06-25T04:33:01.096Z,101864.66
2018-06-25T04:35:31.731Z,101868.50
2018-06-25T04:38:02.576Z,101871.02
2018-06-25T04:40:33.646Z,101875.23
2018-06-25T04:43:05.362Z,101875.53
2018-06-25T04:45:36.644Z,101880.76
2018-06-25T04:48:12.339Z,101877.68
2018-06-25T04:50:43.098Z,101877.75
2018-06-25T04:53:13.348Z,101874.95
2018-06-25T04:55:43.753Z,101882.32
2018-06-25T04:58:15.979Z,101878.78
2018-06-25T05:00:47.652Z,101880.95
2018-06-25T05:03:18.994Z,101875.31
2018-06-25T05:05:49.258Z,101884.98
2018-06-25T05:08:19.520Z,101883.78
2018-06-25T05:10:50.520Z,101880.91
2018-06-25T05:13:20.853Z,101881.83
2018-06-25T05:15:52.056Z,101882.00
2018-06-25T05:18:22.602Z,101882.14
2018-06-25T05:20:53.029Z,101884.37
2018-06-25T05:23:23.242Z,101890.58
2018-06-25T05:25:54.037Z,101894.44
2018-06-25T05:28:25.053Z,101899.54
2018-06-25T05:30:56.074Z,101900.17
2018-06-25T05:33:27.273Z,101910.91
2018-06-25T05:36:06.675Z,101909.03
2018-06-25T05:38:46.174Z,101911.94
2018-06-25T05:41:16.335Z,101918.38
2018-06-25T05:43:47.469Z,101913.08
2018-06-25T05:46:18.207Z,101907.59
2018-06-25T05:48:50.411Z,101911.98
2018-06-25T05:51:21.016Z,101908.86
2018-06-25T05:53:51.969Z,101915.23
2018-06-25T05:56:22.186Z,101910.53
2018-06-25T05:58:54.243Z,101917.86
2018-06-25T06:01:26.555Z,101923.50
2018-06-25T06:04:13.856Z,101928.45
2018-06-25T06:06:48.536Z,101928.53
2018-06-25T06:09:20.540Z,101931.47
2018-06-25T06:11:50.908Z,101941.17
2018-06-25T06:14:22.115Z,101934.23
2018-06-25T06:16:52.693Z,101936.47
2018-06-25T06:19:24.166Z,101931.56
2018-06-25T06:21:55.163Z,101935.84
2018-06-25T06:24:26.057Z,101940.16
2018-06-25T06:29:49.062Z,101948.92
2018-06-25T06:32:20.192Z,101949.72
2018-06-25T06:34:52.251Z,101949.83
2018-06-25T06:37:26.350Z,101955.75
2018-06-25T06:40:23.298Z,101957.02
2018-06-25T06:42:54.921Z,101960.12
2018-06-25T06:45:29.981Z,101963.25
2018-06-25T06:48:01.873Z,101964.73
2018-06-25T06:50:34.020Z,101970.17
2018-06-25T06:53:04.767Z,101973.64
2018-06-25T06:55:39.468Z,101975.59
2018-06-25T06:58:09.798Z,101976.14
2018-06-25T07:00:41.425Z,101977.16
2018-06-25T07:03:13.796Z,101977.48
2018-06-25T07:05:45.257Z,101972.56
2018-06-25T07:08:15.584Z,101977.69
2018-06-25T07:10:47.977Z,101980.95
2018-06-25T07:13:18.818Z,101980.44
2018-06-25T07:15:56.355Z,101981.35
2018-06-25T07:18:32.759Z,101981.87
2018-06-25T07:21:08.278Z,101974.27
2018-06-25T07:23:41.632Z,101981.94
2018-06-25T07:26:18.063Z,102004.91
2018-06-25T07:28:50.115Z,101983.76
2018-06-25T07:31:21.575Z,101984.63
2018-06-25T07:33:52.281Z,101983.80
2018-06-25T07:36:24.912Z,101974.77
2018-06-25T07:38:57.273Z,101985.25
2018-06-25T07:41:28.641Z,101983.78
2018-06-25T07:43:59.549Z,101983.86
2018-06-25T07:46:30.837Z,101983.52
2018-06-25T07:49:04.897Z,101989.32
2018-06-25T07:51:37.333Z,101982.66
2018-06-25T07:54:10.176Z,101985.82
2018-06-25T07:56:46.088Z,101992.75
2018-06-25T07:59:27.062Z,101994.51
2018-06-25T08:01:59.485Z,101991.14
2018-06-25T08:04:34.256Z,102001.25
2018-06-25T08:07:10.653Z,101999.41
2018-06-25T08:09:51.185Z,102000.92
2018-06-25T08:12:24.875Z,102004.62
2018-06-25T08:14:57.278Z,101998.63
2018-06-25T08:17:30.636Z,101938.66
2018-06-25T08:20:01.093Z,102009.66
2018-06-25T08:22:33.190Z,102012.33
2018-06-25T08:25:05.599Z,102008.08
2018-06-25T08:27:36.046Z,102006.77
2018-06-25T08:30:08.365Z,102008.22
2018-06-25T08:32:38.987Z,102020.95
2018-06-25T08:35:11.989Z,102016.18
2018-06-25T08:37:42.288Z,102019.75
2018-06-25T08:40:14.510Z,102013.84
2018-06-25T08:42:46.669Z,102020.93
2018-06-25T08:45:18.659Z,102018.70
2018-06-25T08:47:50.587Z,102018.75
2018-06-25T08:50:25.335Z,101742.72
2018-06-25T08:52:56.193Z,102018.91
2018-06-25T08:55:29.872Z,102030.39
2018-06-25T08:58:03.265Z,102024.67
2018-06-25T09:00:36.149Z,102029.87
2018-06-25T09:03:09.111Z,102037.46
2018-06-25T09:05:40.884Z,102025.23
2018-06-25T09:08:13.319Z,102031.41
2018-06-25T09:10:44.267Z,102028.58
2018-06-25T09:13:17.971Z,102029.27
2018-06-25T09:15:49.898Z,102032.21
2018-06-25T09:18:22.764Z,102033.58
2018-06-25T09:20:54.452Z,102035.63
2018-06-25T09:23:25.860Z,102030.23
2018-06-25T09:25:56.954Z,102036.84
2018-06-25T09:28:30.239Z,102035.30
2018-06-25T09:31:01.921Z,102037.80
2018-06-25T09:33:34.812Z,102033.70
2018-06-25T09:36:05.147Z,102032.42
2018-06-25T09:38:37.481Z,102026.53
2018-06-25T09:41:08.156Z,102028.27
2018-06-25T09:43:39.214Z,102032.03
2018-06-25T09:46:12.187Z,102028.15
2018-06-25T09:48:46.025Z,102031.83
2018-06-25T09:51:19.282Z,102028.70
2018-06-25T09:53:51.646Z,102030.88
2018-06-25T09:56:30.335Z,102036.41
2018-06-25T09:59:01.669Z,102035.27
2018-06-25T10:01:33.642Z,102036.18
2018-06-25T10:04:04.989Z,102025.26
2018-06-25T10:06:37.399Z,102037.98
2018-06-25T10:09:14.004Z,101980.00
2018-06-25T10:11:44.993Z,102035.48
2018-06-25T10:14:19.508Z,102029.92
2018-06-25T10:16:51.756Z,102029.55
2018-06-25T10:19:22.291Z,102037.31
2018-06-25T10:21:52.808Z,102034.44
2018-06-25T10:24:27.846Z,102034.20
2018-06-25T10:27:00.474Z,102025.31
2018-06-25T10:29:32.567Z,102035.16
2018-06-25T10:32:09.451Z,102036.00
2018-06-25T10:38:27.141Z,102038.38
2018-06-25T10:41:00.092Z,102039.08
2018-06-25T10:43:32.487Z,102040.81
2018-06-25T10:46:03.807Z,102044.20
2018-06-25T10:48:41.119Z,102050.61
2018-06-25T10:51:15.936Z,102043.44
2018-06-25T10:53:48.925Z,102047.16
2018-06-25T10:56:20.535Z,102047.83
2018-06-25T10:58:57.186Z,102042.63
2018-06-25T11:01:29.208Z,102041.59
2018-06-25T11:04:00.324Z,102043.89
2018-06-25T11:06:35.500Z,102041.97
2018-06-25T11:11:49.606Z,102038.52
2018-06-25T11:17:04.397Z,102028.28
2018-06-25T11:19:35.379Z,102034.73
2018-06-25T11:22:07.218Z,102033.92
2018-06-25T11:24:40.248Z,102035.19
2018-06-25T11:31:31.840Z,102032.95
2018-06-25T11:34:05.446Z,102029.31
2018-06-25T11:36:37.664Z,102032.73
2018-06-25T11:39:12.522Z,102034.56
2018-06-25T11:41:47.723Z,102047.47
2018-06-25T11:44:36.344Z,102034.33
2018-06-25T11:47:15.538Z,102037.14
2018-06-25T11:49:47.861Z,102042.98
2018-06-25T11:54:55.057Z,102042.41
2018-06-25T11:57:27.128Z,102045.12
2018-06-25T11:59:59.406Z,102045.12
2018-06-25T12:02:34.492Z,102045.84
2018-06-25T12:05:07.445Z,102046.09
2018-06-25T12:07:39.763Z,102051.97
2018-06-25T12:10:16.815Z,102042.64
2018-06-25T12:12:49.455Z,102039.74
2018-06-25T12:15:21.859Z,102041.41
2018-06-25T12:17:54.779Z,102039.20
2018-06-25T12:20:34.316Z,102039.14
2018-06-25T12:23:06.322Z,102042.53
2018-06-25T12:25:37.276Z,101916.82
2018-06-25T12:28:11.471Z,102037.14
2018-06-25T12:30:43.474Z,102033.91
2018-06-25T12:33:15.841Z,102029.14
2018-06-25T12:35:47.131Z,102035.88
2018-06-25T12:38:23.764Z,102028.20
2018-06-25T12:44:18.400Z,102037.55
2018-06-25T12:46:54.006Z,102041.28
2018-06-25T12:49:41.451Z,102034.04
2018-06-25T12:52:31.520Z,102038.19
2018-06-25T12:55:04.959Z,102038.27
2018-06-25T12:57:39.461Z,102039.53
2018-06-25T13:00:21.038Z,102039.17
2018-06-25T13:02:52.676Z,102030.84
2018-06-25T13:08:04.510Z,102027.03
2018-06-25T13:10:39.611Z,102018.20
2018-06-25T13:13:12.504Z,102022.72
2018-06-25T13:15:45.382Z,102020.41
2018-06-25T13:18:28.281Z,102015.86
2018-06-25T13:21:05.033Z,102021.87
2018-06-25T13:23:38.460Z,102013.02
2018-06-25T13:26:12.520Z,102008.38
2018-06-25T13:28:46.156Z,102018.26
2018-06-25T13:31:18.639Z,102021.80
2018-06-25T13:33:54.091Z,102025.58
2018-06-25T13:36:25.757Z,102021.66
2018-06-25T13:38:56.615Z,102020.23
2018-06-25T13:41:27.661Z,102010.73
2018-06-25T13:44:01.624Z,102008.48
2018-06-25T13:46:34.259Z,102004.43
2018-06-25T13:49:06.860Z,102000.88
2018-06-25T13:51:40.309Z,101998.67
2018-06-25T14:06:18.381Z,101997.08
2018-06-25T14:08:50.658Z,101992.45
2018-06-25T14:11:37.472Z,101990.97
2018-06-25T14:14:10.692Z,101990.67
2018-06-25T14:16:48.506Z,101982.16
2018-06-25T14:19:21.306Z,101990.20
2018-06-25T14:21:54.687Z,101984.34
2018-06-25T14:24:33.005Z,101988.31
2018-06-25T14:27:09.263Z,101986.27
2018-06-25T14:29:39.703Z,101985.70
2018-06-25T14:32:41.195Z,101982.39
2018-06-25T14:35:16.906Z,101982.28
2018-06-25T14:37:49.365Z,101983.06
2018-06-25T14:40:21.986Z,101974.25
2018-06-25T14:42:54.441Z,101981.98
2018-06-25T14:45:27.708Z,101967.02
2018-06-25T14:48:08.530Z,101975.02
2018-06-25T14:50:41.320Z,101984.94
2018-06-25T14:53:18.824Z,101977.53
2018-06-25T14:55:53.728Z,101973.38
2018-06-25T14:58:42.824Z,101974.83
2018-06-25T15:01:14.710Z,101971.08
2018-06-25T15:03:52.636Z,101968.28
2018-06-25T15:09:13.790Z,101957.23
2018-06-25T15:11:44.720Z,101966.83
2018-06-25T15:14:19.003Z,101950.39
2018-06-25T15:17:02.406Z,101955.84
2018-06-25T15:19:40.686Z,101953.14
2018-06-25T15:22:17.526Z,101949.22
2018-06-25T15:24:52.099Z,101956.50
2018-06-25T15:27:25.077Z,101952.45
2018-06-25T15:29:57.613Z,101952.37
2018-06-25T15:32:33.059Z,101950.69
2018-06-25T15:35:05.184Z,101946.52
2018-06-25T15:37:38.287Z,101946.10
2018-06-25T15:40:18.138Z,101947.51
2018-06-25T15:42:51.945Z,101950.66
2018-06-25T15:45:23.347Z,101944.31
2018-06-25T15:47:54.790Z,101940.07
2018-06-25T15:50:25.335Z,101939.94
2018-06-25T15:52:56.678Z,101940.23
2018-06-25T15:55:30.427Z,101941.80
2018-06-25T15:58:01.419Z,101934.77
2018-06-25T16:00:37.027Z,101935.48
2018-06-25T16:03:07.664Z,101929.66
2018-06-25T16:05:38.222Z,101929.45
2018-06-25T16:08:09.764Z,101925.20
2018-06-25T16:10:53.655Z,101928.83
2018-06-25T16:13:27.443Z,101924.48
2018-06-25T16:16:01.989Z,101928.37
2018-06-25T16:18:48.811Z,101930.12
2018-06-25T16:21:30.281Z,101926.94
2018-06-25T16:24:03.985Z,101921.38
2018-06-25T16:29:29.545Z,101930.09
2018-06-25T16:32:08.352Z,101922.18
2018-06-25T16:37:34.408Z,101919.63
2018-06-25T16:40:11.432Z,101926.05
2018-06-25T16:42:45.402Z,101914.57
2018-06-25T16:45:26.215Z,101914.70
2018-06-25T16:48:04.294Z,101923.90
2018-06-25T16:50:39.385Z,101920.66
2018-06-25T16:53:12.942Z,101926.35
2018-06-25T16:58:37.266Z,101920.75
2018-06-25T17:01:09.647Z,101919.81
2018-06-25T17:03:46.665Z,101939.79
2018-06-25T17:06:18.911Z,101923.11
2018-06-25T17:08:50.384Z,101926.28
2018-06-25T17:11:25.496Z,101917.81
2018-06-25T17:14:03.244Z,101915.46
2018-06-25T17:16:38.437Z,101914.23
2018-06-25T17:19:11.547Z,101909.94
2018-06-25T17:21:50.266Z,101904.56
2018-06-25T17:24:25.713Z,101909.41
2018-06-25T17:26:59.700Z,101915.52
2018-06-25T17:29:46.480Z,101909.22
2018-06-25T17:32:26.101Z,101908.27
2018-06-25T17:35:12.443Z,101910.00
2018-06-25T17:38:00.893Z,101903.57
2018-06-25T17:40:35.613Z,101905.27
2018-06-25T17:43:07.268Z,101909.36
2018-06-25T17:45:54.514Z,101908.00
2018-06-25T17:48:28.253Z,101905.13
2018-06-25T17:51:03.781Z,101910.34
2018-06-25T17:53:39.244Z,101904.42
2018-06-25T17:56:10.079Z,101909.30
2018-06-25T17:58:46.133Z,101905.27
2018-06-25T18:01:19.708Z,101902.17
2018-06-25T18:03:54.728Z,101901.70
2018-06-25T18:11:34.464Z,101904.79
2018-06-25T18:14:07.481Z,101909.25
2018-06-25T18:16:56.588Z,101913.16
2018-06-25T18:19:39.392Z,101910.02
2018-06-25T18:22:13.266Z,101907.29
2018-06-25T18:24:47.016Z,101910.39
2018-06-25T18:27:27.934Z,101916.58
2018-06-25T18:32:49.839Z,101911.47
2018-06-25T18:35:24.554Z,101910.41
2018-06-25T18:37:56.690Z,101912.71
2018-06-25T18:40:31.873Z,101916.09
2018-06-25T18:43:05.972Z,101912.50
2018-06-25T18:45:36.751Z,101916.66
2018-06-25T18:48:10.176Z,101914.34
2018-06-25T18:50:43.410Z,101914.20
2018-06-25T18:53:15.636Z,101918.03
2018-06-25T18:55:50.815Z,101914.51
2018-06-25T18:58:21.337Z,101915.74
2018-06-25T19:00:53.231Z,101917.63
2018-06-25T19:03:25.505Z,101917.97
2018-06-25T19:06:05.758Z,101922.89
2018-06-25T19:08:45.599Z,101919.13
2018-06-25T19:11:21.203Z,101915.37
2018-06-25T19:14:06.577Z,101921.96
2018-06-25T19:16:38.503Z,101922.76
2018-06-25T19:19:09.599Z,101914.67
2018-06-25T19:21:40.417Z,101920.17
2018-06-25T19:24:12.909Z,101920.14
2018-06-25T19:26:46.351Z,101917.45
2018-06-25T19:29:18.824Z,101919.62
2018-06-25T19:31:49.718Z,101933.16
2018-06-25T19:34:21.045Z,101926.03
2018-06-25T19:36:52.828Z,101926.00
2018-06-25T19:39:26.330Z,101926.88
2018-06-25T19:41:57.746Z,101934.52
2018-06-25T19:44:35.474Z,101936.36
2018-06-25T19:47:14.647Z,101940.23
2018-06-25T19:49:46.767Z,101940.86
2018-06-25T19:52:19.541Z,101944.09
2018-06-25T19:54:53.713Z,101944.30
2018-06-25T19:57:26.216Z,101945.11
2018-06-25T20:00:00.444Z,101948.30
2018-06-25T20:02:41.049Z,101950.38
2018-06-25T20:05:15.674Z,101951.92
2018-06-25T20:07:50.584Z,101949.78
2018-06-25T20:10:26.559Z,101953.59
2018-06-25T20:13:00.897Z,101953.86
2018-06-25T20:15:33.435Z,101963.81
2018-06-25T20:18:06.339Z,101958.89
2018-06-25T20:20:47.660Z,101960.38
2018-06-25T20:23:39.506Z,101965.07
2018-06-25T20:26:13.993Z,101960.92
2018-06-25T20:28:47.268Z,101973.44
2018-06-25T20:31:25.346Z,101976.36
2018-06-25T20:38:54.452Z,101981.80
2018-06-25T20:41:26.188Z,101981.67
2018-06-25T20:44:04.697Z,101986.22
2018-06-25T20:46:37.719Z,101987.91
2018-06-25T20:49:09.914Z,101988.67
2018-06-25T20:51:48.577Z,101989.69
2018-06-25T20:54:22.513Z,101996.77
2018-06-25T20:56:59.939Z,101995.24
2018-06-25T20:59:31.302Z,101995.92
2018-06-25T21:02:02.567Z,101992.36
2018-06-25T21:04:34.973Z,101995.45
2018-06-25T21:07:09.446Z,101993.88
2018-06-25T21:09:53.154Z,101992.33
2018-06-25T21:12:28.576Z,101990.16
2018-06-25T21:15:03.901Z,101996.09
2018-06-25T21:17:37.783Z,101988.94
2018-06-25T21:20:08.136Z,101990.66
2018-06-25T21:22:43.161Z,101988.48
2018-06-25T21:25:14.571Z,101995.66
2018-06-25T21:28:16.874Z,101994.33
2018-06-25T21:30:59.950Z,101995.44
2018-06-25T21:33:33.215Z,102003.59
2018-06-25T21:36:05.152Z,102009.70
2018-06-25T21:38:35.793Z,102003.79
2018-06-25T21:41:08.779Z,102004.98
2018-06-25T21:43:40.397Z,102001.09
2018-06-25T21:46:11.441Z,102001.42
2018-06-25T21:48:46.131Z,101964.77
2018-06-25T21:51:16.502Z,102004.66
2018-06-25T21:53:48.810Z,102000.94
2018-06-25T21:56:19.691Z,101999.27
2018-06-25T21:58:55.388Z,101996.08
2018-06-25T22:01:30.275Z,101991.19
2018-06-25T22:04:02.898Z,101942.64
2018-06-25T22:06:33.340Z,102002.14
2018-06-25T22:09:05.140Z,102006.89
2018-06-25T22:11:37.014Z,102002.66
2018-06-25T22:14:11.366Z,101997.04
2018-06-25T22:16:42.520Z,102004.14
2018-06-25T22:19:12.758Z,101999.08
2018-06-25T22:21:43.188Z,102005.46
2018-06-25T22:24:15.593Z,102009.86
2018-06-25T22:26:45.793Z,102006.30
2018-06-25T22:29:16.055Z,102002.56
2018-06-25T22:31:46.664Z,102006.45
2018-06-25T22:34:19.609Z,102008.97
2018-06-25T22:36:51.229Z,102006.72
2018-06-25T22:39:26.665Z,102008.58
2018-06-25T22:41:57.496Z,102004.02
2018-06-25T22:44:29.834Z,102007.42
2018-06-25T22:47:04.183Z,102014.22
2018-06-25T22:49:51.258Z,102008.31
2018-06-25T22:52:24.332Z,102007.00
2018-06-25T22:54:54.772Z,102005.81
2018-06-25T22:57:26.129Z,102009.86
2018-06-25T23:02:53.344Z,102012.08
2018-06-25T23:05:25.765Z,102002.60
2018-06-25T23:07:59.602Z,102011.77
2018-06-25T23:10:30.715Z,102014.13
2018-06-25T23:13:02.135Z,102014.13
2018-06-25T23:15:33.643Z,102015.11
2018-06-25T23:18:03.993Z,102030.90
2018-06-25T23:20:34.622Z,102017.36
2018-06-25T23:23:08.911Z,102013.47
2018-06-25T23:25:40.194Z,102010.39
2018-06-25T23:28:10.483Z,102015.32
2018-06-25T23:30:41.121Z,102013.20
2018-06-25T23:33:11.994Z,102012.55
2018-06-25T23:35:42.155Z,102012.13
2018-06-25T23:38:12.708Z,102008.98
2018-06-25T23:40:43.215Z,102004.43
2018-06-25T23:43:13.489Z,102004.98
2018-06-25T23:45:44.312Z,102008.83
2018-06-25T23:48:14.608Z,102009.31
2018-06-25T23:50:46.640Z,102011.17
2018-06-25T23:53:18.149Z,102005.78
2018-06-25T23:55:48.660Z,102010.02
2018-06-25T23:58:18.941Z,102008.46
